sensor_id;sensor_type;location;lat;lon;timestamp;P1;durP1;ratioP1;P2;durP2;ratioP2
7703;SDS011;3894;49.700;10.770;2022-11-23T00:00:32;6.90;;;3.78;;
7703;SDS011;3894;49.700;10.770;2022-11-23T00:02:58;7.60;;;3.28;;
7703;SDS011;3894;49.700;10.770;2022-11-23T00:05:25;9.13;;;4.15;;
7703;SDS011;3894;49.700;10.770;2022-11-23T00:07:52;8.70;;;3.28;;
7703;SDS011;3894;49.700;10.770;2022-11-23T00:10:17;8.65;;;3.33;;
7703;SDS011;3894;49.700;10.770;2022-11-23T00:12:43;6.25;;;3.05;;
7703;SDS011;3894;49.700;10.770;2022-11-23T00:15:10;7.50;;;2.70;;
7703;SDS011;3894;49.700;10.770;2022-11-23T00:17:37;9.88;;;3.70;;
7703;SDS011;3894;49.700;10.770;2022-11-23T00:20:03;9.27;;;3.50;;
7703;SDS011;3894;49.700;10.770;2022-11-23T00:22:30;9.32;;;3.67;;
7703;SDS011;3894;49.700;10.770;2022-11-23T00:24:55;8.77;;;3.22;;
7703;SDS011;3894;49.700;10.770;2022-11-23T00:27:21;7.85;;;3.05;;
7703;SDS011;3894;49.700;10.770;2022-11-23T00:29:47;7.65;;;2.28;;
7703;SDS011;3894;49.700;10.770;2022-11-23T00:32:12;8.70;;;3.13;;
7703;SDS011;3894;49.700;10.770;2022-11-23T00:34:38;6.00;;;2.22;;
7703;SDS011;3894;49.700;10.770;2022-11-23T00:37:04;9.77;;;2.85;;
7703;SDS011;3894;49.700;10.770;2022-11-23T00:39:29;9.68;;;3.65;;
7703;SDS011;3894;49.700;10.770;2022-11-23T00:41:55;12.98;;;2.97;;
7703;SDS011;3894;49.700;10.770;2022-11-23T00:44:20;8.65;;;2.70;;
7703;SDS011;3894;49.700;10.770;2022-11-23T00:46:46;11.15;;;3.33;;
7703;SDS011;3894;49.700;10.770;2022-11-23T00:49:11;10.13;;;2.72;;
7703;SDS011;3894;49.700;10.770;2022-11-23T00:51:37;6.93;;;2.45;;
7703;SDS011;3894;49.700;10.770;2022-11-23T00:54:03;5.97;;;2.35;;
7703;SDS011;3894;49.700;10.770;2022-11-23T00:56:30;7.20;;;2.25;;
7703;SDS011;3894;49.700;10.770;2022-11-23T00:58:57;6.13;;;2.00;;
7703;SDS011;3894;49.700;10.770;2022-11-23T01:01:25;7.43;;;2.58;;
7703;SDS011;3894;49.700;10.770;2022-11-23T01:03:53;10.73;;;3.00;;
7703;SDS011;3894;49.700;10.770;2022-11-23T01:06:25;7.90;;;2.47;;
7703;SDS011;3894;49.700;10.770;2022-11-23T01:08:56;9.18;;;2.80;;
7703;SDS011;3894;49.700;10.770;2022-11-23T01:11:24;6.13;;;1.92;;
7703;SDS011;3894;49.700;10.770;2022-11-23T01:13:52;5.57;;;2.15;;
7703;SDS011;3894;49.700;10.770;2022-11-23T01:16:18;8.52;;;2.75;;
7703;SDS011;3894;49.700;10.770;2022-11-23T01:18:46;8.05;;;2.38;;
7703;SDS011;3894;49.700;10.770;2022-11-23T01:21:12;6.00;;;2.22;;
7703;SDS011;3894;49.700;10.770;2022-11-23T01:23:37;8.10;;;2.00;;
7703;SDS011;3894;49.700;10.770;2022-11-23T01:26:04;9.52;;;2.95;;
7703;SDS011;3894;49.700;10.770;2022-11-23T01:33:30;10.57;;;2.33;;
7703;SDS011;3894;49.700;10.770;2022-11-23T01:35:56;7.80;;;2.00;;
7703;SDS011;3894;49.700;10.770;2022-11-23T01:38:21;7.47;;;1.98;;
7703;SDS011;3894;49.700;10.770;2022-11-23T01:40:47;9.75;;;2.15;;
7703;SDS011;3894;49.700;10.770;2022-11-23T01:43:14;6.10;;;1.85;;
7703;SDS011;3894;49.700;10.770;2022-11-23T01:45:42;7.53;;;1.98;;
7703;SDS011;3894;49.700;10.770;2022-11-23T01:48:17;7.00;;;1.85;;
7703;SDS011;3894;49.700;10.770;2022-11-23T01:50:47;6.78;;;2.08;;
7703;SDS011;3894;49.700;10.770;2022-11-23T01:53:15;9.45;;;2.60;;
7703;SDS011;3894;49.700;10.770;2022-11-23T01:55:41;6.60;;;2.03;;
7703;SDS011;3894;49.700;10.770;2022-11-23T01:58:10;6.45;;;1.95;;
7703;SDS011;3894;49.700;10.770;2022-11-23T02:00:38;6.28;;;1.65;;
7703;SDS011;3894;49.700;10.770;2022-11-23T02:03:04;8.25;;;1.92;;
7703;SDS011;3894;49.700;10.770;2022-11-23T02:05:32;8.10;;;1.70;;
7703;SDS011;3894;49.700;10.770;2022-11-23T02:08:02;6.05;;;1.73;;
7703;SDS011;3894;49.700;10.770;2022-11-23T02:10:30;6.53;;;2.10;;
7703;SDS011;3894;49.700;10.770;2022-11-23T02:12:59;6.85;;;1.98;;
7703;SDS011;3894;49.700;10.770;2022-11-23T02:15:29;7.82;;;2.20;;
7703;SDS011;3894;49.700;10.770;2022-11-23T02:17:56;6.88;;;2.45;;
7703;SDS011;3894;49.700;10.770;2022-11-23T02:20:23;9.18;;;2.13;;
7703;SDS011;3894;49.700;10.770;2022-11-23T02:23:03;6.80;;;1.92;;
7703;SDS011;3894;49.700;10.770;2022-11-23T02:26:05;6.90;;;1.95;;
7703;SDS011;3894;49.700;10.770;2022-11-23T02:28:39;5.07;;;1.70;;
7703;SDS011;3894;49.700;10.770;2022-11-23T02:31:08;5.72;;;2.05;;
7703;SDS011;3894;49.700;10.770;2022-11-23T02:33:36;7.07;;;2.28;;
7703;SDS011;3894;49.700;10.770;2022-11-23T02:39:00;6.95;;;2.10;;
7703;SDS011;3894;49.700;10.770;2022-11-23T02:41:35;9.60;;;2.53;;
7703;SDS011;3894;49.700;10.770;2022-11-23T02:44:02;6.00;;;1.95;;
7703;SDS011;3894;49.700;10.770;2022-11-23T02:46:30;9.45;;;2.10;;
7703;SDS011;3894;49.700;10.770;2022-11-23T02:48:56;7.53;;;2.10;;
7703;SDS011;3894;49.700;10.770;2022-11-23T02:51:21;6.60;;;1.90;;
7703;SDS011;3894;49.700;10.770;2022-11-23T02:53:47;8.73;;;2.70;;
7703;SDS011;3894;49.700;10.770;2022-11-23T02:56:13;11.07;;;2.53;;
7703;SDS011;3894;49.700;10.770;2022-11-23T02:58:38;7.55;;;2.90;;
7703;SDS011;3894;49.700;10.770;2022-11-23T03:01:04;7.78;;;2.63;;
7703;SDS011;3894;49.700;10.770;2022-11-23T03:03:29;8.13;;;2.92;;
7703;SDS011;3894;49.700;10.770;2022-11-23T03:05:55;6.90;;;2.55;;
7703;SDS011;3894;49.700;10.770;2022-11-23T03:08:20;7.60;;;2.90;;
7703;SDS011;3894;49.700;10.770;2022-11-23T03:10:46;7.43;;;3.38;;
7703;SDS011;3894;49.700;10.770;2022-11-23T03:13:12;7.18;;;2.13;;
7703;SDS011;3894;49.700;10.770;2022-11-23T03:15:37;5.22;;;1.77;;
7703;SDS011;3894;49.700;10.770;2022-11-23T03:18:03;7.90;;;1.77;;
7703;SDS011;3894;49.700;10.770;2022-11-23T03:20:28;6.82;;;2.10;;
7703;SDS011;3894;49.700;10.770;2022-11-23T03:22:54;8.45;;;2.05;;
7703;SDS011;3894;49.700;10.770;2022-11-23T03:25:19;10.18;;;1.98;;
7703;SDS011;3894;49.700;10.770;2022-11-23T03:27:45;8.63;;;2.03;;
7703;SDS011;3894;49.700;10.770;2022-11-23T03:30:11;9.00;;;2.03;;
7703;SDS011;3894;49.700;10.770;2022-11-23T03:32:37;7.47;;;2.30;;
7703;SDS011;3894;49.700;10.770;2022-11-23T03:35:03;10.30;;;2.25;;
7703;SDS011;3894;49.700;10.770;2022-11-23T03:37:29;7.75;;;2.28;;
7703;SDS011;3894;49.700;10.770;2022-11-23T03:39:55;6.78;;;2.25;;
7703;SDS011;3894;49.700;10.770;2022-11-23T03:42:20;6.07;;;1.67;;
7703;SDS011;3894;49.700;10.770;2022-11-23T03:44:46;5.20;;;1.77;;
7703;SDS011;3894;49.700;10.770;2022-11-23T03:47:11;7.90;;;2.53;;
7703;SDS011;3894;49.700;10.770;2022-11-23T03:49:37;10.35;;;2.15;;
7703;SDS011;3894;49.700;10.770;2022-11-23T03:52:03;7.65;;;2.00;;
7703;SDS011;3894;49.700;10.770;2022-11-23T03:54:28;7.82;;;2.03;;
7703;SDS011;3894;49.700;10.770;2022-11-23T03:56:54;6.53;;;2.22;;
7703;SDS011;3894;49.700;10.770;2022-11-23T03:59:19;6.90;;;2.15;;
7703;SDS011;3894;49.700;10.770;2022-11-23T04:01:45;5.78;;;1.88;;
7703;SDS011;3894;49.700;10.770;2022-11-23T04:04:14;4.75;;;1.63;;
7703;SDS011;3894;49.700;10.770;2022-11-23T04:06:39;6.90;;;2.28;;
7703;SDS011;3894;49.700;10.770;2022-11-23T04:09:05;6.68;;;2.00;;
7703;SDS011;3894;49.700;10.770;2022-11-23T04:11:30;7.70;;;2.03;;
7703;SDS011;3894;49.700;10.770;2022-11-23T04:13:56;5.80;;;2.13;;
7703;SDS011;3894;49.700;10.770;2022-11-23T04:16:22;7.10;;;2.00;;
7703;SDS011;3894;49.700;10.770;2022-11-23T04:18:47;6.90;;;2.38;;
7703;SDS011;3894;49.700;10.770;2022-11-23T04:21:13;8.20;;;1.95;;
7703;SDS011;3894;49.700;10.770;2022-11-23T04:23:38;8.38;;;2.00;;
7703;SDS011;3894;49.700;10.770;2022-11-23T04:26:04;9.45;;;1.88;;
7703;SDS011;3894;49.700;10.770;2022-11-23T04:28:29;5.32;;;1.83;;
7703;SDS011;3894;49.700;10.770;2022-11-23T04:30:55;6.10;;;2.13;;
7703;SDS011;3894;49.700;10.770;2022-11-23T04:33:22;7.40;;;2.08;;
7703;SDS011;3894;49.700;10.770;2022-11-23T04:35:48;6.93;;;1.80;;
7703;SDS011;3894;49.700;10.770;2022-11-23T04:38:14;6.40;;;1.73;;
7703;SDS011;3894;49.700;10.770;2022-11-23T04:40:39;6.55;;;2.47;;
7703;SDS011;3894;49.700;10.770;2022-11-23T04:43:05;7.25;;;2.03;;
7703;SDS011;3894;49.700;10.770;2022-11-23T04:45:31;6.07;;;2.10;;
7703;SDS011;3894;49.700;10.770;2022-11-23T04:47:56;6.75;;;2.00;;
7703;SDS011;3894;49.700;10.770;2022-11-23T04:50:22;8.55;;;2.75;;
7703;SDS011;3894;49.700;10.770;2022-11-23T04:52:47;5.07;;;1.63;;
7703;SDS011;3894;49.700;10.770;2022-11-23T04:55:13;6.28;;;1.95;;
7703;SDS011;3894;49.700;10.770;2022-11-23T04:57:39;5.28;;;1.73;;
7703;SDS011;3894;49.700;10.770;2022-11-23T05:00:04;5.43;;;2.03;;
7703;SDS011;3894;49.700;10.770;2022-11-23T05:02:30;6.93;;;2.42;;
7703;SDS011;3894;49.700;10.770;2022-11-23T05:04:56;5.72;;;2.08;;
7703;SDS011;3894;49.700;10.770;2022-11-23T05:07:21;5.20;;;2.00;;
7703;SDS011;3894;49.700;10.770;2022-11-23T05:09:47;6.40;;;2.60;;
7703;SDS011;3894;49.700;10.770;2022-11-23T05:12:12;5.10;;;1.60;;
7703;SDS011;3894;49.700;10.770;2022-11-23T05:14:38;6.30;;;1.98;;
7703;SDS011;3894;49.700;10.770;2022-11-23T05:17:04;7.03;;;2.58;;
7703;SDS011;3894;49.700;10.770;2022-11-23T05:19:29;7.55;;;2.75;;
7703;SDS011;3894;49.700;10.770;2022-11-23T05:21:55;10.93;;;2.45;;
7703;SDS011;3894;49.700;10.770;2022-11-23T05:24:20;5.10;;;2.15;;
7703;SDS011;3894;49.700;10.770;2022-11-23T05:26:46;5.80;;;2.35;;
7703;SDS011;3894;49.700;10.770;2022-11-23T05:29:11;8.25;;;2.55;;
7703;SDS011;3894;49.700;10.770;2022-11-23T05:31:37;6.68;;;2.78;;
7703;SDS011;3894;49.700;10.770;2022-11-23T05:34:02;5.95;;;1.83;;
7703;SDS011;3894;49.700;10.770;2022-11-23T05:36:28;7.55;;;2.05;;
7703;SDS011;3894;49.700;10.770;2022-11-23T05:38:54;5.35;;;1.70;;
7703;SDS011;3894;49.700;10.770;2022-11-23T05:41:19;7.40;;;1.77;;
7703;SDS011;3894;49.700;10.770;2022-11-23T05:43:45;5.82;;;2.15;;
7703;SDS011;3894;49.700;10.770;2022-11-23T05:46:10;9.80;;;2.10;;
7703;SDS011;3894;49.700;10.770;2022-11-23T05:48:36;9.10;;;2.80;;
7703;SDS011;3894;49.700;10.770;2022-11-23T05:51:01;7.25;;;2.63;;
7703;SDS011;3894;49.700;10.770;2022-11-23T05:53:27;7.63;;;2.80;;
7703;SDS011;3894;49.700;10.770;2022-11-23T05:55:57;9.80;;;3.42;;
7703;SDS011;3894;49.700;10.770;2022-11-23T05:58:23;10.60;;;2.60;;
7703;SDS011;3894;49.700;10.770;2022-11-23T06:00:49;8.95;;;3.22;;
7703;SDS011;3894;49.700;10.770;2022-11-23T06:03:15;6.57;;;2.63;;
7703;SDS011;3894;49.700;10.770;2022-11-23T06:05:40;7.75;;;2.50;;
7703;SDS011;3894;49.700;10.770;2022-11-23T06:08:06;6.55;;;2.63;;
7703;SDS011;3894;49.700;10.770;2022-11-23T06:10:31;6.68;;;2.35;;
7703;SDS011;3894;49.700;10.770;2022-11-23T06:13:01;7.20;;;2.63;;
7703;SDS011;3894;49.700;10.770;2022-11-23T06:15:27;7.28;;;2.53;;
7703;SDS011;3894;49.700;10.770;2022-11-23T06:17:53;7.22;;;2.65;;
7703;SDS011;3894;49.700;10.770;2022-11-23T06:20:23;6.82;;;2.38;;
7703;SDS011;3894;49.700;10.770;2022-11-23T06:22:52;8.60;;;2.90;;
7703;SDS011;3894;49.700;10.770;2022-11-23T06:25:18;5.93;;;2.05;;
7703;SDS011;3894;49.700;10.770;2022-11-23T06:27:55;7.18;;;2.50;;
7703;SDS011;3894;49.700;10.770;2022-11-23T06:30:22;6.30;;;2.75;;
7703;SDS011;3894;49.700;10.770;2022-11-23T06:32:48;8.23;;;3.13;;
7703;SDS011;3894;49.700;10.770;2022-11-23T06:35:14;9.98;;;3.05;;
7703;SDS011;3894;49.700;10.770;2022-11-23T06:37:40;10.15;;;3.20;;
7703;SDS011;3894;49.700;10.770;2022-11-23T06:40:06;11.38;;;3.22;;
7703;SDS011;3894;49.700;10.770;2022-11-23T06:42:33;8.13;;;2.70;;
7703;SDS011;3894;49.700;10.770;2022-11-23T06:44:58;8.02;;;2.97;;
7703;SDS011;3894;49.700;10.770;2022-11-23T06:47:24;7.45;;;2.63;;
7703;SDS011;3894;49.700;10.770;2022-11-23T06:49:51;9.30;;;3.13;;
7703;SDS011;3894;49.700;10.770;2022-11-23T06:52:17;6.13;;;2.72;;
7703;SDS011;3894;49.700;10.770;2022-11-23T06:54:42;8.45;;;3.00;;
7703;SDS011;3894;49.700;10.770;2022-11-23T06:57:08;10.32;;;3.20;;
7703;SDS011;3894;49.700;10.770;2022-11-23T06:59:34;10.02;;;2.80;;
7703;SDS011;3894;49.700;10.770;2022-11-23T07:02:00;8.70;;;3.10;;
7703;SDS011;3894;49.700;10.770;2022-11-23T07:04:26;10.15;;;2.72;;
7703;SDS011;3894;49.700;10.770;2022-11-23T07:06:51;10.35;;;3.00;;
7703;SDS011;3894;49.700;10.770;2022-11-23T07:09:17;8.52;;;2.90;;
7703;SDS011;3894;49.700;10.770;2022-11-23T07:11:42;11.18;;;3.83;;
7703;SDS011;3894;49.700;10.770;2022-11-23T07:14:08;7.50;;;3.05;;
7703;SDS011;3894;49.700;10.770;2022-11-23T07:16:34;10.88;;;3.00;;
7703;SDS011;3894;49.700;10.770;2022-11-23T07:18:59;9.15;;;2.75;;
7703;SDS011;3894;49.700;10.770;2022-11-23T07:21:25;9.35;;;2.95;;
7703;SDS011;3894;49.700;10.770;2022-11-23T07:23:50;8.23;;;3.20;;
7703;SDS011;3894;49.700;10.770;2022-11-23T07:26:16;11.60;;;4.13;;
7703;SDS011;3894;49.700;10.770;2022-11-23T07:28:42;10.02;;;3.88;;
7703;SDS011;3894;49.700;10.770;2022-11-23T07:31:07;10.88;;;3.88;;
7703;SDS011;3894;49.700;10.770;2022-11-23T07:33:33;8.00;;;3.50;;
7703;SDS011;3894;49.700;10.770;2022-11-23T07:35:59;9.30;;;3.35;;
7703;SDS011;3894;49.700;10.770;2022-11-23T07:38:29;10.23;;;2.70;;
7703;SDS011;3894;49.700;10.770;2022-11-23T07:40:55;7.70;;;3.20;;
7703;SDS011;3894;49.700;10.770;2022-11-23T07:43:22;6.47;;;2.53;;
7703;SDS011;3894;49.700;10.770;2022-11-23T07:45:48;8.20;;;2.42;;
7703;SDS011;3894;49.700;10.770;2022-11-23T07:48:14;8.02;;;2.92;;
7703;SDS011;3894;49.700;10.770;2022-11-23T07:50:40;6.07;;;2.40;;
7703;SDS011;3894;49.700;10.770;2022-11-23T07:53:06;9.50;;;2.72;;
7703;SDS011;3894;49.700;10.770;2022-11-23T07:55:32;8.32;;;2.63;;
7703;SDS011;3894;49.700;10.770;2022-11-23T07:57:58;8.73;;;2.70;;
7703;SDS011;3894;49.700;10.770;2022-11-23T08:00:24;10.27;;;3.10;;
7703;SDS011;3894;49.700;10.770;2022-11-23T08:02:51;9.85;;;3.25;;
7703;SDS011;3894;49.700;10.770;2022-11-23T08:05:17;8.55;;;3.05;;
7703;SDS011;3894;49.700;10.770;2022-11-23T08:07:43;10.00;;;3.47;;
7703;SDS011;3894;49.700;10.770;2022-11-23T08:10:13;9.07;;;3.38;;
7703;SDS011;3894;49.700;10.770;2022-11-23T08:12:38;8.40;;;2.65;;
7703;SDS011;3894;49.700;10.770;2022-11-23T08:15:05;9.50;;;3.35;;
7703;SDS011;3894;49.700;10.770;2022-11-23T08:17:31;8.07;;;2.75;;
7703;SDS011;3894;49.700;10.770;2022-11-23T08:19:57;8.85;;;3.28;;
7703;SDS011;3894;49.700;10.770;2022-11-23T08:22:23;6.68;;;2.53;;
7703;SDS011;3894;49.700;10.770;2022-11-23T08:24:48;6.80;;;2.63;;
7703;SDS011;3894;49.700;10.770;2022-11-23T08:27:14;8.40;;;2.90;;
7703;SDS011;3894;49.700;10.770;2022-11-23T08:29:40;9.27;;;2.70;;
7703;SDS011;3894;49.700;10.770;2022-11-23T08:32:06;11.27;;;3.90;;
7703;SDS011;3894;49.700;10.770;2022-11-23T08:34:31;11.88;;;2.95;;
7703;SDS011;3894;49.700;10.770;2022-11-23T08:36:57;10.75;;;2.80;;
7703;SDS011;3894;49.700;10.770;2022-11-23T08:39:23;9.80;;;2.70;;
7703;SDS011;3894;49.700;10.770;2022-11-23T08:41:48;7.55;;;3.00;;
7703;SDS011;3894;49.700;10.770;2022-11-23T08:44:14;7.63;;;2.92;;
7703;SDS011;3894;49.700;10.770;2022-11-23T08:46:40;6.10;;;2.70;;
7703;SDS011;3894;49.700;10.770;2022-11-23T08:49:05;11.75;;;3.50;;
7703;SDS011;3894;49.700;10.770;2022-11-23T08:51:32;9.25;;;3.03;;
7703;SDS011;3894;49.700;10.770;2022-11-23T08:53:57;9.98;;;2.40;;
7703;SDS011;3894;49.700;10.770;2022-11-23T08:56:23;10.70;;;3.40;;
7703;SDS011;3894;49.700;10.770;2022-11-23T08:58:49;7.20;;;3.17;;
7703;SDS011;3894;49.700;10.770;2022-11-23T09:01:15;12.75;;;3.88;;
7703;SDS011;3894;49.700;10.770;2022-11-23T09:03:41;9.82;;;2.88;;
7703;SDS011;3894;49.700;10.770;2022-11-23T09:06:08;8.52;;;2.72;;
7703;SDS011;3894;49.700;10.770;2022-11-23T09:08:35;7.05;;;2.75;;
7703;SDS011;3894;49.700;10.770;2022-11-23T09:11:01;10.40;;;3.17;;
7703;SDS011;3894;49.700;10.770;2022-11-23T09:13:28;9.35;;;2.50;;
7703;SDS011;3894;49.700;10.770;2022-11-23T09:15:57;9.30;;;3.80;;
7703;SDS011;3894;49.700;10.770;2022-11-23T09:18:24;13.45;;;4.25;;
7703;SDS011;3894;49.700;10.770;2022-11-23T09:20:50;10.70;;;4.32;;
7703;SDS011;3894;49.700;10.770;2022-11-23T09:23:16;9.77;;;4.80;;
7703;SDS011;3894;49.700;10.770;2022-11-23T09:25:41;11.48;;;4.22;;
7703;SDS011;3894;49.700;10.770;2022-11-23T09:28:11;12.77;;;3.80;;
7703;SDS011;3894;49.700;10.770;2022-11-23T09:30:38;9.05;;;3.00;;
7703;SDS011;3894;49.700;10.770;2022-11-23T09:33:04;10.25;;;3.20;;
7703;SDS011;3894;49.700;10.770;2022-11-23T09:35:30;10.20;;;3.47;;
7703;SDS011;3894;49.700;10.770;2022-11-23T09:37:59;9.88;;;3.78;;
7703;SDS011;3894;49.700;10.770;2022-11-23T09:40:29;11.20;;;3.05;;
7703;SDS011;3894;49.700;10.770;2022-11-23T09:43:03;7.65;;;2.90;;
7703;SDS011;3894;49.700;10.770;2022-11-23T09:45:54;9.18;;;3.70;;
7703;SDS011;3894;49.700;10.770;2022-11-23T09:48:35;9.27;;;3.10;;
7703;SDS011;3894;49.700;10.770;2022-11-23T09:51:15;8.07;;;3.03;;
7703;SDS011;3894;49.700;10.770;2022-11-23T09:56:26;9.07;;;3.10;;
7703;SDS011;3894;49.700;10.770;2022-11-23T09:58:55;9.50;;;3.42;;
7703;SDS011;3894;49.700;10.770;2022-11-23T10:01:35;9.38;;;3.63;;
7703;SDS011;3894;49.700;10.770;2022-11-23T10:04:01;7.95;;;3.22;;
7703;SDS011;3894;49.700;10.770;2022-11-23T10:06:29;8.05;;;2.95;;
7703;SDS011;3894;49.700;10.770;2022-11-23T10:12:11;10.85;;;2.85;;
7703;SDS011;3894;49.700;10.770;2022-11-23T10:15:09;9.60;;;2.38;;
7703;SDS011;3894;49.700;10.770;2022-11-23T10:17:54;9.73;;;3.10;;
7703;SDS011;3894;49.700;10.770;2022-11-23T10:25:55;6.97;;;2.67;;
7703;SDS011;3894;49.700;10.770;2022-11-23T10:28:21;11.85;;;10.32;;
7703;SDS011;3894;49.700;10.770;2022-11-23T10:30:50;8.25;;;2.92;;
7703;SDS011;3894;49.700;10.770;2022-11-23T10:33:42;6.75;;;3.08;;
7703;SDS011;3894;49.700;10.770;2022-11-23T10:36:17;8.15;;;2.65;;
7703;SDS011;3894;49.700;10.770;2022-11-23T10:38:42;9.98;;;2.90;;
7703;SDS011;3894;49.700;10.770;2022-11-23T10:41:12;10.15;;;3.65;;
7703;SDS011;3894;49.700;10.770;2022-11-23T10:43:44;7.72;;;2.22;;
7703;SDS011;3894;49.700;10.770;2022-11-23T10:46:22;7.78;;;3.03;;
7703;SDS011;3894;49.700;10.770;2022-11-23T10:52:01;9.20;;;2.80;;
7703;SDS011;3894;49.700;10.770;2022-11-23T10:54:50;6.53;;;2.80;;
7703;SDS011;3894;49.700;10.770;2022-11-23T10:59:57;6.93;;;2.53;;
7703;SDS011;3894;49.700;10.770;2022-11-23T11:02:25;7.82;;;2.30;;
7703;SDS011;3894;49.700;10.770;2022-11-23T11:05:11;9.70;;;3.15;;
7703;SDS011;3894;49.700;10.770;2022-11-23T11:07:58;8.68;;;2.17;;
7703;SDS011;3894;49.700;10.770;2022-11-23T11:10:36;7.45;;;3.13;;
7703;SDS011;3894;49.700;10.770;2022-11-23T11:13:23;6.20;;;1.92;;
7703;SDS011;3894;49.700;10.770;2022-11-23T11:16:36;8.57;;;1.70;;
7703;SDS011;3894;49.700;10.770;2022-11-23T11:18:43;6.88;;;2.03;;
7703;SDS011;3894;49.700;10.770;2022-11-23T11:21:19;6.50;;;2.35;;
7703;SDS011;3894;49.700;10.770;2022-11-23T11:24:02;7.07;;;2.30;;
7703;SDS011;3894;49.700;10.770;2022-11-23T11:27:14;10.00;;;2.47;;
7703;SDS011;3894;49.700;10.770;2022-11-23T11:35:16;5.88;;;1.63;;
7703;SDS011;3894;49.700;10.770;2022-11-23T11:37:54;7.38;;;2.40;;
7703;SDS011;3894;49.700;10.770;2022-11-23T11:42:58;8.05;;;1.90;;
7703;SDS011;3894;49.700;10.770;2022-11-23T11:45:31;6.30;;;1.88;;
7703;SDS011;3894;49.700;10.770;2022-11-23T11:50:33;7.60;;;2.15;;
7703;SDS011;3894;49.700;10.770;2022-11-23T11:53:05;8.32;;;1.90;;
7703;SDS011;3894;49.700;10.770;2022-11-23T11:55:56;7.00;;;1.85;;
7703;SDS011;3894;49.700;10.770;2022-11-23T11:58:27;5.20;;;1.58;;
7703;SDS011;3894;49.700;10.770;2022-11-23T12:04:04;5.70;;;2.17;;
7703;SDS011;3894;49.700;10.770;2022-11-23T12:06:42;9.13;;;1.63;;
7703;SDS011;3894;49.700;10.770;2022-11-23T12:09:14;5.57;;;1.73;;
7703;SDS011;3894;49.700;10.770;2022-11-23T12:11:42;7.47;;;2.38;;
7703;SDS011;3894;49.700;10.770;2022-11-23T12:14:10;8.15;;;1.63;;
7703;SDS011;3894;49.700;10.770;2022-11-23T12:16:42;7.75;;;1.50;;
7703;SDS011;3894;49.700;10.770;2022-11-23T12:19:29;4.90;;;1.75;;
7703;SDS011;3894;49.700;10.770;2022-11-23T12:22:04;5.35;;;1.38;;
7703;SDS011;3894;49.700;10.770;2022-11-23T12:42:48;5.75;;;1.63;;
7703;SDS011;3894;49.700;10.770;2022-11-23T12:48:13;6.72;;;1.10;;
7703;SDS011;3894;49.700;10.770;2022-11-23T12:56:12;6.25;;;1.10;;
7703;SDS011;3894;49.700;10.770;2022-11-23T12:58:42;7.40;;;1.15;;
7703;SDS011;3894;49.700;10.770;2022-11-23T13:06:41;5.35;;;0.55;;
7703;SDS011;3894;49.700;10.770;2022-11-23T13:15:00;7.28;;;0.73;;
7703;SDS011;3894;49.700;10.770;2022-11-23T13:23:19;7.00;;;1.05;;
7703;SDS011;3894;49.700;10.770;2022-11-23T13:28:31;4.13;;;0.65;;
7703;SDS011;3894;49.700;10.770;2022-11-23T13:31:31;5.25;;;0.85;;
7703;SDS011;3894;49.700;10.770;2022-11-23T13:33:53;4.35;;;0.88;;
7703;SDS011;3894;49.700;10.770;2022-11-23T13:39:02;8.05;;;0.77;;
7703;SDS011;3894;49.700;10.770;2022-11-23T13:44:22;4.93;;;0.60;;
7703;SDS011;3894;49.700;10.770;2022-11-23T13:47:00;4.95;;;0.90;;
7703;SDS011;3894;49.700;10.770;2022-11-23T13:49:40;4.72;;;0.90;;
7703;SDS011;3894;49.700;10.770;2022-11-23T13:57:30;5.82;;;0.93;;
7703;SDS011;3894;49.700;10.770;2022-11-23T14:06:04;8.20;;;1.20;;
7703;SDS011;3894;49.700;10.770;2022-11-23T14:08:57;5.57;;;0.70;;
7703;SDS011;3894;49.700;10.770;2022-11-23T14:11:23;3.95;;;0.57;;
7703;SDS011;3894;49.700;10.770;2022-11-23T14:13:52;5.28;;;0.65;;
7703;SDS011;3894;49.700;10.770;2022-11-23T14:16:36;5.78;;;0.70;;
7703;SDS011;3894;49.700;10.770;2022-11-23T14:22:21;6.50;;;0.82;;
7703;SDS011;3894;49.700;10.770;2022-11-23T14:25:36;6.97;;;1.08;;
7703;SDS011;3894;49.700;10.770;2022-11-23T14:35:51;3.88;;;0.90;;
7703;SDS011;3894;49.700;10.770;2022-11-23T14:38:50;5.50;;;0.82;;
7703;SDS011;3894;49.700;10.770;2022-11-23T14:41:34;7.93;;;1.95;;
7703;SDS011;3894;49.700;10.770;2022-11-23T14:44:00;6.05;;;1.27;;
7703;SDS011;3894;49.700;10.770;2022-11-23T14:46:27;7.25;;;1.30;;
7703;SDS011;3894;49.700;10.770;2022-11-23T14:49:01;12.02;;;0.88;;
7703;SDS011;3894;49.700;10.770;2022-11-23T14:51:32;5.57;;;0.82;;
7703;SDS011;3894;49.700;10.770;2022-11-23T14:53:59;5.40;;;0.57;;
7703;SDS011;3894;49.700;10.770;2022-11-23T14:58:52;3.58;;;0.77;;
7703;SDS011;3894;49.700;10.770;2022-11-23T15:01:21;5.05;;;0.50;;
7703;SDS011;3894;49.700;10.770;2022-11-23T15:08:56;4.25;;;0.68;;
7703;SDS011;3894;49.700;10.770;2022-11-23T15:11:42;5.10;;;0.65;;
7703;SDS011;3894;49.700;10.770;2022-11-23T15:14:15;4.95;;;0.60;;
7703;SDS011;3894;49.700;10.770;2022-11-23T15:16:42;5.85;;;0.70;;
7703;SDS011;3894;49.700;10.770;2022-11-23T15:19:18;5.63;;;0.73;;
7703;SDS011;3894;49.700;10.770;2022-11-23T15:21:51;5.28;;;0.52;;
7703;SDS011;3894;49.700;10.770;2022-11-23T15:24:24;4.13;;;0.65;;
7703;SDS011;3894;49.700;10.770;2022-11-23T15:26:50;6.45;;;0.65;;
7703;SDS011;3894;49.700;10.770;2022-11-23T15:29:27;3.25;;;0.35;;
7703;SDS011;3894;49.700;10.770;2022-11-23T15:31:53;6.78;;;0.93;;
7703;SDS011;3894;49.700;10.770;2022-11-23T15:34:19;6.28;;;1.27;;
7703;SDS011;3894;49.700;10.770;2022-11-23T15:36:45;5.00;;;0.65;;
7703;SDS011;3894;49.700;10.770;2022-11-23T15:39:16;4.18;;;0.75;;
7703;SDS011;3894;49.700;10.770;2022-11-23T15:41:43;4.95;;;0.88;;
7703;SDS011;3894;49.700;10.770;2022-11-23T15:44:16;4.00;;;0.63;;
7703;SDS011;3894;49.700;10.770;2022-11-23T15:46:47;5.90;;;0.80;;
7703;SDS011;3894;49.700;10.770;2022-11-23T15:49:14;7.80;;;1.00;;
7703;SDS011;3894;49.700;10.770;2022-11-23T15:51:40;4.78;;;1.10;;
7703;SDS011;3894;49.700;10.770;2022-11-23T15:56:46;3.83;;;0.50;;
7703;SDS011;3894;49.700;10.770;2022-11-23T16:01:57;4.15;;;0.47;;
7703;SDS011;3894;49.700;10.770;2022-11-23T16:04:26;3.58;;;0.80;;
7703;SDS011;3894;49.700;10.770;2022-11-23T16:07:05;4.50;;;1.05;;
7703;SDS011;3894;49.700;10.770;2022-11-23T16:09:41;3.92;;;1.10;;
7703;SDS011;3894;49.700;10.770;2022-11-23T16:12:24;6.82;;;0.90;;
7703;SDS011;3894;49.700;10.770;2022-11-23T16:14:52;5.20;;;1.13;;
7703;SDS011;3894;49.700;10.770;2022-11-23T16:17:22;6.30;;;1.10;;
7703;SDS011;3894;49.700;10.770;2022-11-23T16:19:53;8.95;;;2.33;;
7703;SDS011;3894;49.700;10.770;2022-11-23T16:22:23;10.20;;;2.33;;
7703;SDS011;3894;49.700;10.770;2022-11-23T16:27:40;8.00;;;1.67;;
7703;SDS011;3894;49.700;10.770;2022-11-23T16:30:20;4.28;;;1.00;;
7703;SDS011;3894;49.700;10.770;2022-11-23T16:32:48;6.75;;;1.95;;
7703;SDS011;3894;49.700;10.770;2022-11-23T16:35:15;5.05;;;1.23;;
7703;SDS011;3894;49.700;10.770;2022-11-23T16:37:42;4.68;;;1.35;;
7703;SDS011;3894;49.700;10.770;2022-11-23T16:40:07;9.68;;;2.45;;
7703;SDS011;3894;49.700;10.770;2022-11-23T16:42:33;9.07;;;1.77;;
7703;SDS011;3894;49.700;10.770;2022-11-23T16:44:59;3.95;;;1.13;;
7703;SDS011;3894;49.700;10.770;2022-11-23T16:47:25;7.25;;;1.58;;
7703;SDS011;3894;49.700;10.770;2022-11-23T16:49:52;7.70;;;1.30;;
7703;SDS011;3894;49.700;10.770;2022-11-23T16:52:18;7.65;;;1.50;;
7703;SDS011;3894;49.700;10.770;2022-11-23T16:54:44;9.63;;;2.05;;
7703;SDS011;3894;49.700;10.770;2022-11-23T16:57:21;6.03;;;2.28;;
7703;SDS011;3894;49.700;10.770;2022-11-23T16:59:49;8.73;;;2.50;;
7703;SDS011;3894;49.700;10.770;2022-11-23T17:02:15;6.72;;;2.13;;
7703;SDS011;3894;49.700;10.770;2022-11-23T17:04:42;9.13;;;2.45;;
7703;SDS011;3894;49.700;10.770;2022-11-23T17:07:08;7.35;;;2.78;;
7703;SDS011;3894;49.700;10.770;2022-11-23T17:09:34;7.68;;;1.88;;
7703;SDS011;3894;49.700;10.770;2022-11-23T17:12:00;6.43;;;2.22;;
7703;SDS011;3894;49.700;10.770;2022-11-23T17:14:26;6.85;;;2.90;;
7703;SDS011;3894;49.700;10.770;2022-11-23T17:16:53;8.73;;;2.33;;
7703;SDS011;3894;49.700;10.770;2022-11-23T17:19:20;10.05;;;2.60;;